地図

経路データ

SID SEASON NUMBER BASIN SUBBASIN NAME ISO_TIME NATURE LAT LON WMO_WIND WMO_PRES WMO_AGENCY TRACK_TYPE DIST2LAND LANDFALL IFLAG USA_AGENCY USA_ATCF_ID USA_LAT USA_LON USA_RECORD USA_STATUS USA_WIND USA_PRES USA_SSHS USA_R34_NE USA_R34_SE USA_R34_SW USA_R34_NW USA_R50_NE USA_R50_SE USA_R50_SW USA_R50_NW USA_R64_NE USA_R64_SE USA_R64_SW USA_R64_NW USA_POCI USA_ROCI USA_RMW USA_EYE TOKYO_LAT TOKYO_LON TOKYO_GRADE TOKYO_WIND TOKYO_PRES TOKYO_R50_DIR TOKYO_R50_LONG TOKYO_R50_SHORT TOKYO_R30_DIR TOKYO_R30_LONG TOKYO_R30_SHORT TOKYO_LAND CMA_LAT CMA_LON CMA_CAT CMA_WIND CMA_PRES HKO_LAT HKO_LON HKO_CAT HKO_WIND HKO_PRES NEWDELHI_LAT NEWDELHI_LON NEWDELHI_GRADE NEWDELHI_WIND NEWDELHI_PRES NEWDELHI_CI NEWDELHI_DP NEWDELHI_POCI REUNION_LAT REUNION_LON REUNION_TYPE REUNION_WIND REUNION_PRES REUNION_TNUM REUNION_CI REUNION_RMW REUNION_R34_NE REUNION_R34_SE REUNION_R34_SW REUNION_R34_NW REUNION_R50_NE REUNION_R50_SE REUNION_R50_SW REUNION_R50_NW REUNION_R64_NE REUNION_R64_SE REUNION_R64_SW REUNION_R64_NW BOM_LAT BOM_LON BOM_TYPE BOM_WIND BOM_PRES BOM_TNUM BOM_CI BOM_RMW BOM_R34_NE BOM_R34_SE BOM_R34_SW BOM_R34_NW BOM_R50_NE BOM_R50_SE BOM_R50_SW BOM_R50_NW BOM_R64_NE BOM_R64_SE BOM_R64_SW BOM_R64_NW BOM_ROCI BOM_POCI BOM_EYE BOM_POS_METHOD BOM_PRES_METHOD NADI_LAT NADI_LON NADI_CAT NADI_WIND NADI_PRES WELLINGTON_LAT WELLINGTON_LON WELLINGTON_WIND WELLINGTON_PRES DS824_LAT DS824_LON DS824_STAGE DS824_WIND DS824_PRES TD9636_LAT TD9636_LON TD9636_STAGE TD9636_WIND TD9636_PRES TD9635_LAT TD9635_LON TD9635_WIND TD9635_PRES TD9635_ROCI NEUMANN_LAT NEUMANN_LON NEUMANN_CLASS NEUMANN_WIND NEUMANN_PRES MLC_LAT MLC_LON MLC_CLASS MLC_WIND MLC_PRES USA_GUST BOM_GUST BOM_GUST_PER REUNION_GUST REUNION_GUST_PER USA_SEAHGT USA_SEARAD_NE USA_SEARAD_SE USA_SEARAD_SW USA_SEARAD_NW STORM_SPEED STORM_DIR
1926101S12064 1926 18 SI MM NOT_NAMED 1926-04-11 06:00:00 NR -12.0000 63.6000 reunion main 1103 1097 _____O________ -1 -12.0000 63.6000 99 9.90000 2 243
1926101S12064 1926 18 SI MM NOT_NAMED 1926-04-11 09:00:00 NR -12.0398 63.5170 main 1097 1082 _____P________ -1 -12.0398 63.5170 99 2 244
1926101S12064 1926 18 SI MM NOT_NAMED 1926-04-11 12:00:00 NR -12.0817 63.4277 main 1082 1076 _____P________ -1 -12.0817 63.4277 99 2 245
1926101S12064 1926 18 SI MM NOT_NAMED 1926-04-11 15:00:00 NR -12.1280 63.3256 main 1076 1061 _____P________ -1 -12.1280 63.3256 99 2 245
1926101S12064 1926 18 SI MM NOT_NAMED 1926-04-11 18:00:00 NR -12.1808 63.2044 main 1061 1055 _____P________ -1 -12.1808 63.2044 99 3 246
1926101S12064 1926 18 SI MM NOT_NAMED 1926-04-11 21:00:00 NR -12.2423 63.0576 main 1055 1034 _____P________ -1 -12.2423 63.0576 99 3 247
1926101S12064 1926 18 SI MM NOT_NAMED 1926-04-12 00:00:00 NR -12.3146 62.8790 main 1034 1013 _____P________ -1 -12.3146 62.8790 99 4 248
1926101S12064 1926 18 SI MM NOT_NAMED 1926-04-12 03:00:00 NR -12.3998 62.6619 main 1013 987 _____P________ -1 -12.3998 62.6619 99 5 248
1926101S12064 1926 18 SI MM NOT_NAMED 1926-04-12 06:00:00 NR -12.5000 62.4000 reunion main 987 961 _____O________ -1 -12.5000 62.4000 99 9.90000 6 249
1926101S12064 1926 18 SI MM NOT_NAMED 1926-04-12 09:00:00 NR -12.6172 62.0899 main 961 936 _____P________ -1 -12.6172 62.0899 99 7 249
1926101S12064 1926 18 SI MM NOT_NAMED 1926-04-12 12:00:00 NR -12.7537 61.7405 main 921 897 _____P________ -1 -12.7537 61.7405 99 8 247
1926101S12064 1926 18 SI MM NOT_NAMED 1926-04-12 15:00:00 NR -12.9114 61.3641 main 897 858 _____P________ -1 -12.9114 61.3641 99 8 246
1926101S12064 1926 18 SI MM NOT_NAMED 1926-04-12 18:00:00 NR -13.0927 60.9726 main 858 821 _____P________ -1 -13.0927 60.9726 99 9 243
1926101S12064 1926 18 SI MM NOT_NAMED 1926-04-12 21:00:00 NR -13.2997 60.5784 main 821 785 _____P________ -1 -13.2997 60.5784 99 9 240
1926101S12064 1926 18 SI MM NOT_NAMED 1926-04-13 00:00:00 NR -13.5350 60.1934 main 785 739 _____P________ -1 -13.5350 60.1934 99 9 235
1926101S12064 1926 18 SI MM NOT_NAMED 1926-04-13 03:00:00 NR -13.8009 59.8299 main 739 698 _____P________ -1 -13.8009 59.8299 99 9 230
1926101S12064 1926 18 SI MM NOT_NAMED 1926-04-13 06:00:00 NR -14.1000 59.5000 reunion main 698 657 _____O________ -1 -14.1000 59.5000 99 9.90000 9 223
1926101S12064 1926 18 SI MM NOT_NAMED 1926-04-13 09:00:00 NR -14.4502 59.2101 main 646 608 _____P________ -1 -14.4502 59.2101 99 9 216
1926101S12064 1926 18 SI MM NOT_NAMED 1926-04-13 12:00:00 NR -14.8386 58.9450 main 606 558 _____P________ -1 -14.8386 58.9450 99 9 211
1926101S12064 1926 18 SI MM NOT_NAMED 1926-04-13 15:00:00 NR -15.2550 58.7069 main 547 499 _____P________ -1 -15.2550 58.7069 99 10 207
1926101S12064 1926 18 SI MM NOT_NAMED 1926-04-13 18:00:00 NR -15.6892 58.4979 main 499 452 _____P________ -1 -15.6892 58.4979 99 10 203
1926101S12064 1926 18 SI MM NOT_NAMED 1926-04-13 21:00:00 NR -16.1310 58.3203 main 452 406 _____P________ -1 -16.1310 58.3203 99 9 199
1926101S12064 1926 18 SI MM NOT_NAMED 1926-04-14 00:00:00 NR -16.5702 58.1765 main 395 349 _____P________ -1 -16.5702 58.1765 99 9 196
1926101S12064 1926 18 SI MM NOT_NAMED 1926-04-14 03:00:00 NR -16.9966 58.0689 main 349 303 _____P________ -1 -16.9966 58.0689 99 9 191
1926101S12064 1926 18 SI MM NOT_NAMED 1926-04-14 06:00:00 NR -17.4000 58.0000 reunion main 303 269 _____O________ -1 -17.4000 58.0000 99 9.90000 8 189
1926101S12064 1926 18 SI MM NOT_NAMED 1926-04-14 09:00:00 NR -17.7394 57.9477 main 269 235 _____P________ -1 -17.7394 57.9477 99 7 185
1926101S12064 1926 18 SI MM NOT_NAMED 1926-04-14 12:00:00 NR -18.0598 57.9354 main 224 202 _____P________ -1 -18.0598 57.9354 99 6 179
1926101S12064 1926 18 SI MM NOT_NAMED 1926-04-14 15:00:00 NR -18.3649 57.9596 main 192 170 _____P________ -1 -18.3649 57.9596 99 6 173
1926101S12064 1926 18 SI MM NOT_NAMED 1926-04-14 18:00:00 NR -18.6589 58.0166 main 159 140 _____P________ -1 -18.6589 58.0166 99 6 167
1926101S12064 1926 18 SI MM NOT_NAMED 1926-04-14 21:00:00 NR -18.9455 58.1028 main 140 113 _____P________ -1 -18.9455 58.1028 99 6 162
1926101S12064 1926 18 SI MM NOT_NAMED 1926-04-15 00:00:00 NR -19.2286 58.2146 main 113 91 _____P________ -1 -19.2286 58.2146 99 6 158
1926101S12064 1926 18 SI MM NOT_NAMED 1926-04-15 03:00:00 NR -19.5122 58.3482 main 91 85 _____P________ -1 -19.5122 58.3482 99 6 155
1926101S12064 1926 18 SI MM NOT_NAMED 1926-04-15 06:00:00 NR -19.8000 58.5000 reunion main 90 85 _____O________ -1 -19.8000 58.5000 99 9.90000 7 156
1926101S12064 1926 18 SI MM NOT_NAMED 1926-04-15 09:00:00 NR -20.1134 58.6317 main 86 86 _____P________ -1 -20.1134 58.6317 99 7 157
1926101S12064 1926 18 SI MM NOT_NAMED 1926-04-15 12:00:00 NR -20.4297 58.7847 main 104 104 _____P________ -1 -20.4297 58.7847 99 7 154
1926101S12064 1926 18 SI MM NOT_NAMED 1926-04-15 15:00:00 NR -20.7471 58.9580 main 132 132 _____P________ -1 -20.7471 58.9580 99 7 152
1926101S12064 1926 18 SI MM NOT_NAMED 1926-04-15 18:00:00 NR -21.0643 59.1508 main 169 169 _____P________ -1 -21.0643 59.1508 99 7 149
1926101S12064 1926 18 SI MM NOT_NAMED 1926-04-15 21:00:00 NR -21.3798 59.3622 main 203 203 _____P________ -1 -21.3798 59.3622 99 8 147
1926101S12064 1926 18 SI MM NOT_NAMED 1926-04-16 00:00:00 NR -21.6919 59.5915 main 238 238 _____P________ -1 -21.6919 59.5915 99 8 144
1926101S12064 1926 18 SI MM NOT_NAMED 1926-04-16 03:00:00 NR -21.9991 59.8377 main 274 274 _____P________ -1 -21.9991 59.8377 99 8 142
1926101S12064 1926 18 SI MM NOT_NAMED 1926-04-16 06:00:00 NR -22.3000 60.1000 reunion main 319 319 _____O________ -1 -22.3000 60.1000 99 9.90000 8 140
1926101S12064 1926 18 SI MM NOT_NAMED 1926-04-16 09:00:00 NR -22.6184 60.3961 main 364 364 _____P________ -1 -22.6184 60.3961 99 9 138
1926101S12064 1926 18 SI MM NOT_NAMED 1926-04-16 12:00:00 NR -22.9340 60.7144 main 409 409 _____P________ -1 -22.9340 60.7144 99 9 136
1926101S12064 1926 18 SI MM NOT_NAMED 1926-04-16 15:00:00 NR -23.2419 61.0465 main 455 455 _____P________ -1 -23.2419 61.0465 99 9 134
1926101S12064 1926 18 SI MM NOT_NAMED 1926-04-16 18:00:00 NR -23.5373 61.3834 main 507 507 _____P________ -1 -23.5373 61.3834 99 8 133
1926101S12064 1926 18 SI MM NOT_NAMED 1926-04-16 21:00:00 NR -23.8154 61.7164 main 552 552 _____P________ -1 -23.8154 61.7164 99 8 132
1926101S12064 1926 18 SI MM NOT_NAMED 1926-04-17 00:00:00 NR -24.0717 62.0362 main 597 597 _____P________ -1 -24.0717 62.0362 99 7 131
1926101S12064 1926 18 SI MM NOT_NAMED 1926-04-17 03:00:00 NR -24.3014 62.3339 main 635 635 _____P________ -1 -24.3014 62.3339 99 7 130
1926101S12064 1926 18 SI MM NOT_NAMED 1926-04-17 06:00:00 NR -24.5000 62.6000 reunion main 673 673 _____O________ -1 -24.5000 62.6000 99 9.90000 6 129
1926101S12064 1926 18 SI MM NOT_NAMED 1926-04-17 09:00:00 NR -24.6646 62.8277 main 702 702 _____P________ -1 -24.6646 62.8277 99 5 128
1926101S12064 1926 18 SI MM NOT_NAMED 1926-04-17 12:00:00 NR -24.7983 63.0196 main 725 725 _____P________ -1 -24.7983 63.0196 99 4 127
1926101S12064 1926 18 SI MM NOT_NAMED 1926-04-17 15:00:00 NR -24.9055 63.1805 main 748 748 _____P________ -1 -24.9055 63.1805 99 3 126
1926101S12064 1926 18 SI MM NOT_NAMED 1926-04-17 18:00:00 NR -24.9907 63.3155 main 763 763 _____P________ -1 -24.9907 63.3155 99 3 124
1926101S12064 1926 18 SI MM NOT_NAMED 1926-04-17 21:00:00 NR -25.0584 63.4298 main 777 777 _____P________ -1 -25.0584 63.4298 99 2 122
1926101S12064 1926 18 SI MM NOT_NAMED 1926-04-18 00:00:00 NR -25.1129 63.5285 main 785 785 _____P________ -1 -25.1129 63.5285 99 2 121
1926101S12064 1926 18 SI MM NOT_NAMED 1926-04-18 03:00:00 NR -25.1586 63.6169 main 800 800 _____P________ -1 -25.1586 63.6169 99 2 119
1926101S12064 1926 18 SI MM NOT_NAMED 1926-04-18 06:00:00 NR -25.2000 63.7000 reunion main 808 _____O________ -1 -25.2000 63.7000 99 9.90000 2 118

IBTrACS Databaseについて

本データベースは、米国NOAAが公開する1842年以降の世界の熱帯低気圧のベストトラックデータアーカイブInternational Best Track Archive for Climate Stewardship (IBTrACS)を、ウェブで閲覧しやすい形式に変換したものです。

最終更新日:2021-12-06